Wednesday, October 17, 2018, 4:06 AM EDT
Back to Local

KART, Watertown International Airport

Location: Dexter, NY, United States Lat: 43.983
Local Time: 4:06 AM EDT ( 8:06 GMT) Lon: -76.033
Time Zone: US/Eastern Elev: 324 ft

Show me the last for .
Show Decoded

2018-10-17 02:56 METAR KART 170656Z AUTO 20009G17KT 10SM OVC070 09/03 A2983 RMK AO2 SLP104
                 T00890033 =
2018-10-17 01:56 METAR KART 170556Z AUTO 21011KT 10SM OVC075 10/03 A2986 RMK AO2 SLP111 T01000033
                 10111 20061 58016 =
2018-10-16 23:56 METAR KART 170356Z AUTO 20010G14KT 10SM BKN044 OVC050 09/03 A2989 RMK AO2 SLP124
                 T00890033 =
2018-10-16 22:56 METAR KART 170256Z AUTO 23012KT 10SM OVC042 11/04 A2990 RMK AO2 SLP127 T01110039
                 56010 =
2018-10-16 21:56 METAR KART 170156Z AUTO 24012G24KT 10SM SCT035 BKN060 OVC080 11/04 A2991 RMK AO2
                 PK WND 22029/0141 SLP131 T01060044 =
2018-10-16 20:56 METAR KART 170056Z AUTO 18005KT 10SM BKN038 BKN048 BKN060 08/03 A2992 RMK AO2
                 SLP134 T00780033 =
2018-10-16 19:56 METAR KART 162356Z AUTO 00000KT 10SM FEW037 FEW120 06/03 A2993 RMK AO2 SLP139
                 T00610033 10094 20061 58015 =
2018-10-16 18:56 METAR KART 162256Z AUTO 19004KT 10SM FEW120 07/03 A2996 RMK AO2 SLP146 T00670028
                 =
2018-10-16 17:56 METAR KART 162156Z AUTO 22006KT 10SM FEW048 BKN100 08/02 A2996 RMK AO2 SLP149
                 T00780022 =
2018-10-16 16:56 METAR KART 162056Z AUTO 24011KT 10SM OVC120 09/02 A2998 RMK AO2 SLP153 T00890017
                 58019 =
2018-10-16 15:56 METAR KART 161956Z AUTO 23016G25KT 10SM BKN110 09/01 A3000 RMK AO2 PK WND
                 22026/1915 SLP162 T00940006 =
2018-10-16 14:56 METAR KART 161856Z AUTO 24016G29KT 10SM BKN039 OVC047 08/01 A3002 RMK AO2 PK WND
                 23029/1848 SLP167 T00830011 =
2018-10-16 13:56 METAR KART 161756Z AUTO 23018G25KT 10SM BKN039 OVC047 08/02 A3003 RMK AO2 PK WND
                 23029/1732 SLP173 T00830017 10089 20056 56023 =
2018-10-16 12:56 METAR KART 161656Z AUTO 24012G23KT 10SM BKN031 OVC043 08/02 A3005 RMK AO2 SLP178
                 T00830022 =
2018-10-16 11:56 METAR KART 161556Z AUTO 26007KT 10SM OVC037 07/01 A3008 RMK AO2 SLP188 T00720011
                 =
2018-10-16 10:56 METAR KART 161456Z AUTO 28011KT 10SM SCT030 SCT038 OVC055 08/03 A3010 RMK AO2
                 SLP195 T00780028 50002 =
2018-10-16 09:56 METAR KART 161356Z AUTO 27008KT 10SM SCT030 OVC050 08/02 A3011 RMK AO2 SLP197
                 T00780022 =
2018-10-16 08:56 METAR KART 161256Z AUTO 27010KT 10SM FEW055 06/01 A3011 RMK AO2 SLP198 T00610011
                 =
2018-10-16 07:56 METAR KART 161156Z AUTO 27011KT 10SM FEW039 06/01 A3010 RMK AO2 SLP193 70010
                 T00610006 10067 20050 51011 =
2018-10-16 06:56 METAR KART 161056Z AUTO 27009KT 10SM CLR 05/02 A3009 RMK AO2 SLP189 T00500017 =
2018-10-16 05:56 METAR KART 160956Z AUTO 27013KT 10SM BKN031 06/02 A3008 RMK AO2 SLP185 T00610017
                 =
2018-10-16 04:56 METAR KART 160856Z AUTO 27013KT 10SM BKN033 06/01 A3006 RMK AO2 SLP181 T00610011
                 53010 =

Support USWX by starting your Amazon purchase here.